sensor_id;sensor_type;location;lat;lon;timestamp;P1;durP1;ratioP1;P2;durP2;ratioP2
7501;SDS011;3792;47.740;7.606;2022-09-20T00:01:15;7.37;;;3.27;;
7501;SDS011;3792;47.740;7.606;2022-09-20T00:03:45;5.10;;;3.07;;
7501;SDS011;3792;47.740;7.606;2022-09-20T00:06:15;3.80;;;2.80;;
7501;SDS011;3792;47.740;7.606;2022-09-20T00:08:44;1.67;;;1.53;;
7501;SDS011;3792;47.740;7.606;2022-09-20T00:11:14;4.10;;;1.33;;
7501;SDS011;3792;47.740;7.606;2022-09-20T00:13:43;2.70;;;1.50;;
7501;SDS011;3792;47.740;7.606;2022-09-20T00:16:11;4.30;;;1.97;;
7501;SDS011;3792;47.740;7.606;2022-09-20T00:18:41;3.87;;;1.73;;
7501;SDS011;3792;47.740;7.606;2022-09-20T00:21:11;2.17;;;1.20;;
7501;SDS011;3792;47.740;7.606;2022-09-20T00:23:42;2.17;;;1.40;;
7501;SDS011;3792;47.740;7.606;2022-09-20T00:26:09;4.40;;;1.37;;
7501;SDS011;3792;47.740;7.606;2022-09-20T00:28:38;2.83;;;1.47;;
7501;SDS011;3792;47.740;7.606;2022-09-20T00:31:08;1.20;;;1.10;;
7501;SDS011;3792;47.740;7.606;2022-09-20T00:33:37;3.60;;;1.30;;
7501;SDS011;3792;47.740;7.606;2022-09-20T00:36:21;2.60;;;1.30;;
7501;SDS011;3792;47.740;7.606;2022-09-20T00:38:48;2.97;;;1.80;;
7501;SDS011;3792;47.740;7.606;2022-09-20T00:41:20;3.03;;;1.40;;
7501;SDS011;3792;47.740;7.606;2022-09-20T00:43:50;3.07;;;1.50;;
7501;SDS011;3792;47.740;7.606;2022-09-20T00:46:19;2.07;;;1.30;;
7501;SDS011;3792;47.740;7.606;2022-09-20T00:48:50;4.33;;;1.83;;
7501;SDS011;3792;47.740;7.606;2022-09-20T00:51:22;4.57;;;1.30;;
7501;SDS011;3792;47.740;7.606;2022-09-20T00:53:53;2.33;;;1.40;;
7501;SDS011;3792;47.740;7.606;2022-09-20T00:56:24;1.97;;;1.57;;
7501;SDS011;3792;47.740;7.606;2022-09-20T00:58:59;3.77;;;1.60;;
7501;SDS011;3792;47.740;7.606;2022-09-20T01:01:31;4.20;;;1.03;;
7501;SDS011;3792;47.740;7.606;2022-09-20T01:03:59;1.73;;;1.20;;
7501;SDS011;3792;47.740;7.606;2022-09-20T01:06:27;1.13;;;1.03;;
7501;SDS011;3792;47.740;7.606;2022-09-20T01:08:57;1.73;;;1.23;;
7501;SDS011;3792;47.740;7.606;2022-09-20T01:11:28;2.30;;;1.50;;
7501;SDS011;3792;47.740;7.606;2022-09-20T01:13:55;4.40;;;1.53;;
7501;SDS011;3792;47.740;7.606;2022-09-20T01:16:24;3.23;;;1.10;;
7501;SDS011;3792;47.740;7.606;2022-09-20T01:18:54;2.73;;;1.60;;
7501;SDS011;3792;47.740;7.606;2022-09-20T01:21:23;1.60;;;1.27;;
7501;SDS011;3792;47.740;7.606;2022-09-20T01:23:53;2.57;;;0.87;;
7501;SDS011;3792;47.740;7.606;2022-09-20T01:26:35;1.50;;;1.00;;
7501;SDS011;3792;47.740;7.606;2022-09-20T01:29:20;2.33;;;1.13;;
7501;SDS011;3792;47.740;7.606;2022-09-20T01:32:00;1.10;;;1.00;;
7501;SDS011;3792;47.740;7.606;2022-09-20T01:34:32;2.93;;;1.27;;
7501;SDS011;3792;47.740;7.606;2022-09-20T01:37:03;2.67;;;1.20;;
7501;SDS011;3792;47.740;7.606;2022-09-20T01:39:39;2.80;;;1.27;;
7501;SDS011;3792;47.740;7.606;2022-09-20T01:42:12;4.13;;;1.20;;
7501;SDS011;3792;47.740;7.606;2022-09-20T01:44:44;2.83;;;1.50;;
7501;SDS011;3792;47.740;7.606;2022-09-20T01:47:23;4.30;;;1.10;;
7501;SDS011;3792;47.740;7.606;2022-09-20T01:49:58;1.60;;;1.07;;
7501;SDS011;3792;47.740;7.606;2022-09-20T01:52:44;1.17;;;0.80;;
7501;SDS011;3792;47.740;7.606;2022-09-20T02:01:48;1.20;;;0.97;;
7501;SDS011;3792;47.740;7.606;2022-09-20T02:13:29;1.23;;;1.13;;
7501;SDS011;3792;47.740;7.606;2022-09-20T02:16:09;4.20;;;1.00;;
7501;SDS011;3792;47.740;7.606;2022-09-20T02:19:00;1.80;;;1.10;;
7501;SDS011;3792;47.740;7.606;2022-09-20T02:21:40;1.37;;;0.70;;
7501;SDS011;3792;47.740;7.606;2022-09-20T02:24:15;2.40;;;1.13;;
7501;SDS011;3792;47.740;7.606;2022-09-20T02:26:50;1.97;;;0.90;;
7501;SDS011;3792;47.740;7.606;2022-09-20T02:29:31;3.20;;;1.10;;
7501;SDS011;3792;47.740;7.606;2022-09-20T02:32:14;1.80;;;0.90;;
7501;SDS011;3792;47.740;7.606;2022-09-20T02:35:00;1.70;;;1.00;;
7501;SDS011;3792;47.740;7.606;2022-09-20T02:37:47;1.97;;;0.97;;
7501;SDS011;3792;47.740;7.606;2022-09-20T02:40:24;2.90;;;1.37;;
7501;SDS011;3792;47.740;7.606;2022-09-20T02:43:09;3.03;;;1.03;;
7501;SDS011;3792;47.740;7.606;2022-09-20T02:45:44;1.67;;;1.37;;
7501;SDS011;3792;47.740;7.606;2022-09-20T02:48:19;3.60;;;1.50;;
7501;SDS011;3792;47.740;7.606;2022-09-20T02:50:55;4.63;;;3.00;;
7501;SDS011;3792;47.740;7.606;2022-09-20T02:53:33;4.37;;;3.27;;
7501;SDS011;3792;47.740;7.606;2022-09-20T02:56:07;3.73;;;2.77;;
7501;SDS011;3792;47.740;7.606;2022-09-20T02:58:45;4.63;;;2.77;;
7501;SDS011;3792;47.740;7.606;2022-09-20T03:01:24;1.93;;;1.83;;
7501;SDS011;3792;47.740;7.606;2022-09-20T03:04:08;2.30;;;1.53;;
7501;SDS011;3792;47.740;7.606;2022-09-20T03:06:47;2.63;;;1.23;;
7501;SDS011;3792;47.740;7.606;2022-09-20T03:09:23;2.03;;;1.00;;
7501;SDS011;3792;47.740;7.606;2022-09-20T03:11:59;1.67;;;0.77;;
7501;SDS011;3792;47.740;7.606;2022-09-20T03:14:35;3.33;;;1.50;;
7501;SDS011;3792;47.740;7.606;2022-09-20T03:17:09;4.17;;;1.10;;
7501;SDS011;3792;47.740;7.606;2022-09-20T03:19:49;1.93;;;0.90;;
7501;SDS011;3792;47.740;7.606;2022-09-20T03:22:34;3.53;;;1.03;;
7501;SDS011;3792;47.740;7.606;2022-09-20T03:28:15;2.47;;;1.17;;
7501;SDS011;3792;47.740;7.606;2022-09-20T03:31:03;2.83;;;1.17;;
7501;SDS011;3792;47.740;7.606;2022-09-20T03:33:42;3.40;;;1.07;;
7501;SDS011;3792;47.740;7.606;2022-09-20T03:36:25;1.37;;;1.10;;
7501;SDS011;3792;47.740;7.606;2022-09-20T03:39:20;1.63;;;0.83;;
7501;SDS011;3792;47.740;7.606;2022-09-20T03:42:07;2.07;;;0.97;;
7501;SDS011;3792;47.740;7.606;2022-09-20T03:44:57;2.27;;;1.10;;
7501;SDS011;3792;47.740;7.606;2022-09-20T03:50:59;2.63;;;1.03;;
7501;SDS011;3792;47.740;7.606;2022-09-20T03:53:51;2.50;;;1.07;;
7501;SDS011;3792;47.740;7.606;2022-09-20T03:56:53;1.80;;;1.00;;
7501;SDS011;3792;47.740;7.606;2022-09-20T03:59:43;1.83;;;1.17;;
7501;SDS011;3792;47.740;7.606;2022-09-20T04:02:31;2.57;;;1.27;;
7501;SDS011;3792;47.740;7.606;2022-09-20T04:05:11;3.37;;;2.13;;
7501;SDS011;3792;47.740;7.606;2022-09-20T04:07:44;2.30;;;2.00;;
7501;SDS011;3792;47.740;7.606;2022-09-20T04:13:16;5.53;;;2.43;;
7501;SDS011;3792;47.740;7.606;2022-09-20T04:15:56;3.53;;;2.23;;
7501;SDS011;3792;47.740;7.606;2022-09-20T04:18:32;1.47;;;1.30;;
7501;SDS011;3792;47.740;7.606;2022-09-20T04:21:04;2.73;;;1.37;;
7501;SDS011;3792;47.740;7.606;2022-09-20T04:23:40;3.23;;;1.43;;
7501;SDS011;3792;47.740;7.606;2022-09-20T04:26:13;1.00;;;1.00;;
7501;SDS011;3792;47.740;7.606;2022-09-20T04:28:47;4.47;;;1.43;;
7501;SDS011;3792;47.740;7.606;2022-09-20T04:31:23;2.90;;;1.27;;
7501;SDS011;3792;47.740;7.606;2022-09-20T04:33:59;2.00;;;1.27;;
7501;SDS011;3792;47.740;7.606;2022-09-20T04:36:35;1.60;;;1.03;;
7501;SDS011;3792;47.740;7.606;2022-09-20T04:39:22;2.30;;;1.40;;
7501;SDS011;3792;47.740;7.606;2022-09-20T04:45:22;2.20;;;1.10;;
7501;SDS011;3792;47.740;7.606;2022-09-20T04:51:33;2.93;;;1.50;;
7501;SDS011;3792;47.740;7.606;2022-09-20T04:54:33;4.13;;;1.40;;
7501;SDS011;3792;47.740;7.606;2022-09-20T04:57:39;2.23;;;1.33;;
7501;SDS011;3792;47.740;7.606;2022-09-20T05:00:26;4.60;;;2.37;;
7501;SDS011;3792;47.740;7.606;2022-09-20T05:03:20;2.10;;;1.90;;
7501;SDS011;3792;47.740;7.606;2022-09-20T05:06:10;3.13;;;2.33;;
7501;SDS011;3792;47.740;7.606;2022-09-20T05:11:59;2.90;;;2.70;;
7501;SDS011;3792;47.740;7.606;2022-09-20T05:14:59;4.47;;;2.70;;
7501;SDS011;3792;47.740;7.606;2022-09-20T05:17:41;5.03;;;2.37;;
7501;SDS011;3792;47.740;7.606;2022-09-20T05:20:21;1.63;;;1.53;;
7501;SDS011;3792;47.740;7.606;2022-09-20T05:23:13;5.13;;;2.00;;
7501;SDS011;3792;47.740;7.606;2022-09-20T05:26:06;3.50;;;1.90;;
7501;SDS011;3792;47.740;7.606;2022-09-20T05:28:40;1.77;;;1.60;;
7501;SDS011;3792;47.740;7.606;2022-09-20T05:31:16;3.70;;;1.90;;
7501;SDS011;3792;47.740;7.606;2022-09-20T05:33:55;2.27;;;1.70;;
7501;SDS011;3792;47.740;7.606;2022-09-20T05:36:32;3.13;;;1.93;;
7501;SDS011;3792;47.740;7.606;2022-09-20T05:39:08;8.13;;;4.53;;
7501;SDS011;3792;47.740;7.606;2022-09-20T05:41:51;7.73;;;4.97;;
7501;SDS011;3792;47.740;7.606;2022-09-20T05:44:25;5.17;;;4.00;;
7501;SDS011;3792;47.740;7.606;2022-09-20T05:46:57;3.57;;;3.27;;
7501;SDS011;3792;47.740;7.606;2022-09-20T05:49:40;4.53;;;3.53;;
7501;SDS011;3792;47.740;7.606;2022-09-20T05:52:24;6.17;;;3.60;;
7501;SDS011;3792;47.740;7.606;2022-09-20T05:55:19;6.03;;;3.83;;
7501;SDS011;3792;47.740;7.606;2022-09-20T05:58:12;10.63;;;6.80;;
7501;SDS011;3792;47.740;7.606;2022-09-20T06:00:58;9.03;;;7.83;;
7501;SDS011;3792;47.740;7.606;2022-09-20T06:03:33;7.97;;;6.83;;
7501;SDS011;3792;47.740;7.606;2022-09-20T06:06:09;9.33;;;7.70;;
7501;SDS011;3792;47.740;7.606;2022-09-20T06:11:42;10.60;;;9.30;;
7501;SDS011;3792;47.740;7.606;2022-09-20T06:14:38;8.70;;;6.87;;
7501;SDS011;3792;47.740;7.606;2022-09-20T06:17:17;9.87;;;8.60;;
7501;SDS011;3792;47.740;7.606;2022-09-20T06:19:51;9.50;;;8.07;;
7501;SDS011;3792;47.740;7.606;2022-09-20T06:22:35;12.77;;;10.17;;
7501;SDS011;3792;47.740;7.606;2022-09-20T06:25:09;9.93;;;8.90;;
7501;SDS011;3792;47.740;7.606;2022-09-20T06:27:43;6.63;;;5.80;;
7501;SDS011;3792;47.740;7.606;2022-09-20T06:30:16;7.47;;;4.20;;
7501;SDS011;3792;47.740;7.606;2022-09-20T06:32:54;4.23;;;3.30;;
7501;SDS011;3792;47.740;7.606;2022-09-20T06:35:23;8.57;;;5.13;;
7501;SDS011;3792;47.740;7.606;2022-09-20T06:38:00;3.80;;;3.50;;
7501;SDS011;3792;47.740;7.606;2022-09-20T06:40:58;4.47;;;3.47;;
7501;SDS011;3792;47.740;7.606;2022-09-20T06:43:55;12.27;;;4.63;;
7501;SDS011;3792;47.740;7.606;2022-09-20T06:46:24;4.00;;;3.67;;
7501;SDS011;3792;47.740;7.606;2022-09-20T06:48:52;3.63;;;2.07;;
7501;SDS011;3792;47.740;7.606;2022-09-20T06:51:19;4.30;;;1.90;;
7501;SDS011;3792;47.740;7.606;2022-09-20T06:53:48;3.30;;;1.40;;
7501;SDS011;3792;47.740;7.606;2022-09-20T06:56:17;4.10;;;1.60;;
7501;SDS011;3792;47.740;7.606;2022-09-20T06:58:47;3.20;;;2.07;;
7501;SDS011;3792;47.740;7.606;2022-09-20T07:01:14;1.80;;;1.33;;
7501;SDS011;3792;47.740;7.606;2022-09-20T07:03:41;6.80;;;1.40;;
7501;SDS011;3792;47.740;7.606;2022-09-20T07:06:08;2.33;;;1.10;;
7501;SDS011;3792;47.740;7.606;2022-09-20T07:08:36;1.87;;;1.30;;
7501;SDS011;3792;47.740;7.606;2022-09-20T07:11:06;4.87;;;1.63;;
7501;SDS011;3792;47.740;7.606;2022-09-20T07:13:35;3.70;;;2.00;;
7501;SDS011;3792;47.740;7.606;2022-09-20T07:16:03;8.33;;;5.10;;
7501;SDS011;3792;47.740;7.606;2022-09-20T07:18:31;14.47;;;8.27;;
7501;SDS011;3792;47.740;7.606;2022-09-20T07:21:00;11.37;;;6.87;;
7501;SDS011;3792;47.740;7.606;2022-09-20T07:23:28;8.63;;;5.67;;
7501;SDS011;3792;47.740;7.606;2022-09-20T07:25:55;8.80;;;5.50;;
7501;SDS011;3792;47.740;7.606;2022-09-20T07:28:24;6.20;;;2.77;;
7501;SDS011;3792;47.740;7.606;2022-09-20T07:30:52;5.17;;;2.33;;
7501;SDS011;3792;47.740;7.606;2022-09-20T07:33:19;4.67;;;2.30;;
7501;SDS011;3792;47.740;7.606;2022-09-20T07:35:49;2.97;;;1.80;;
7501;SDS011;3792;47.740;7.606;2022-09-20T07:38:18;5.13;;;1.90;;
7501;SDS011;3792;47.740;7.606;2022-09-20T07:40:52;3.43;;;1.90;;
7501;SDS011;3792;47.740;7.606;2022-09-20T07:43:20;3.80;;;1.70;;
7501;SDS011;3792;47.740;7.606;2022-09-20T07:45:50;2.80;;;1.70;;
7501;SDS011;3792;47.740;7.606;2022-09-20T07:48:20;8.33;;;1.80;;
7501;SDS011;3792;47.740;7.606;2022-09-20T07:50:50;4.97;;;2.20;;
7501;SDS011;3792;47.740;7.606;2022-09-20T07:53:17;4.77;;;2.67;;
7501;SDS011;3792;47.740;7.606;2022-09-20T07:55:54;6.97;;;2.90;;
7501;SDS011;3792;47.740;7.606;2022-09-20T07:58:22;4.77;;;2.57;;
7501;SDS011;3792;47.740;7.606;2022-09-20T08:00:52;4.40;;;2.10;;
7501;SDS011;3792;47.740;7.606;2022-09-20T08:03:19;6.40;;;2.10;;
7501;SDS011;3792;47.740;7.606;2022-09-20T08:05:47;3.27;;;2.00;;
7501;SDS011;3792;47.740;7.606;2022-09-20T08:08:15;4.87;;;2.60;;
7501;SDS011;3792;47.740;7.606;2022-09-20T08:10:43;10.43;;;3.00;;
7501;SDS011;3792;47.740;7.606;2022-09-20T08:13:10;2.43;;;2.17;;
7501;SDS011;3792;47.740;7.606;2022-09-20T08:15:38;4.10;;;2.17;;
7501;SDS011;3792;47.740;7.606;2022-09-20T08:18:07;8.27;;;3.03;;
7501;SDS011;3792;47.740;7.606;2022-09-20T08:20:35;5.17;;;2.80;;
7501;SDS011;3792;47.740;7.606;2022-09-20T08:23:03;5.63;;;2.50;;
7501;SDS011;3792;47.740;7.606;2022-09-20T08:25:30;6.40;;;2.27;;
7501;SDS011;3792;47.740;7.606;2022-09-20T08:27:58;5.57;;;2.50;;
7501;SDS011;3792;47.740;7.606;2022-09-20T08:30:25;5.93;;;2.67;;
7501;SDS011;3792;47.740;7.606;2022-09-20T08:32:52;4.03;;;2.57;;
7501;SDS011;3792;47.740;7.606;2022-09-20T08:35:20;7.00;;;2.47;;
7501;SDS011;3792;47.740;7.606;2022-09-20T08:37:49;8.33;;;2.30;;
7501;SDS011;3792;47.740;7.606;2022-09-20T08:40:19;6.30;;;2.97;;
7501;SDS011;3792;47.740;7.606;2022-09-20T08:42:49;8.87;;;2.20;;
7501;SDS011;3792;47.740;7.606;2022-09-20T08:45:18;7.67;;;2.77;;
7501;SDS011;3792;47.740;7.606;2022-09-20T08:47:51;7.07;;;2.60;;
7501;SDS011;3792;47.740;7.606;2022-09-20T08:50:23;4.10;;;2.80;;
7501;SDS011;3792;47.740;7.606;2022-09-20T08:52:52;6.93;;;2.70;;
7501;SDS011;3792;47.740;7.606;2022-09-20T08:55:23;5.17;;;2.33;;
7501;SDS011;3792;47.740;7.606;2022-09-20T08:57:55;6.43;;;2.37;;
7501;SDS011;3792;47.740;7.606;2022-09-20T09:00:25;4.13;;;2.37;;
7501;SDS011;3792;47.740;7.606;2022-09-20T09:02:56;6.90;;;2.90;;
7501;SDS011;3792;47.740;7.606;2022-09-20T09:05:31;5.77;;;2.90;;
7501;SDS011;3792;47.740;7.606;2022-09-20T09:08:01;5.37;;;2.70;;
7501;SDS011;3792;47.740;7.606;2022-09-20T09:10:34;9.20;;;3.07;;
7501;SDS011;3792;47.740;7.606;2022-09-20T09:13:02;4.93;;;2.70;;
7501;SDS011;3792;47.740;7.606;2022-09-20T09:15:31;7.30;;;2.53;;
7501;SDS011;3792;47.740;7.606;2022-09-20T09:18:02;6.47;;;3.07;;
7501;SDS011;3792;47.740;7.606;2022-09-20T09:20:40;8.93;;;3.20;;
7501;SDS011;3792;47.740;7.606;2022-09-20T09:23:10;9.07;;;3.40;;
7501;SDS011;3792;47.740;7.606;2022-09-20T09:25:50;6.70;;;3.70;;
7501;SDS011;3792;47.740;7.606;2022-09-20T09:28:19;8.20;;;3.70;;
7501;SDS011;3792;47.740;7.606;2022-09-20T09:30:49;11.83;;;4.53;;
7501;SDS011;3792;47.740;7.606;2022-09-20T09:33:20;12.57;;;4.57;;
7501;SDS011;3792;47.740;7.606;2022-09-20T09:35:55;13.57;;;4.33;;
7501;SDS011;3792;47.740;7.606;2022-09-20T09:38:25;9.63;;;3.70;;
7501;SDS011;3792;47.740;7.606;2022-09-20T09:40:54;7.27;;;3.43;;
7501;SDS011;3792;47.740;7.606;2022-09-20T09:43:25;9.17;;;3.30;;
7501;SDS011;3792;47.740;7.606;2022-09-20T09:45:54;6.17;;;3.03;;
7501;SDS011;3792;47.740;7.606;2022-09-20T09:48:41;6.87;;;3.17;;
7501;SDS011;3792;47.740;7.606;2022-09-20T09:51:15;4.40;;;2.63;;
7501;SDS011;3792;47.740;7.606;2022-09-20T09:53:44;7.60;;;2.70;;
7501;SDS011;3792;47.740;7.606;2022-09-20T09:56:25;6.23;;;2.60;;
7501;SDS011;3792;47.740;7.606;2022-09-20T10:01:53;7.30;;;2.33;;
7501;SDS011;3792;47.740;7.606;2022-09-20T10:04:30;5.63;;;2.23;;
7501;SDS011;3792;47.740;7.606;2022-09-20T10:07:05;6.50;;;2.13;;
7501;SDS011;3792;47.740;7.606;2022-09-20T10:09:45;5.50;;;2.03;;
7501;SDS011;3792;47.740;7.606;2022-09-20T10:12:24;10.47;;;2.70;;
7501;SDS011;3792;47.740;7.606;2022-09-20T10:15:05;8.33;;;2.43;;
7501;SDS011;3792;47.740;7.606;2022-09-20T10:17:48;5.20;;;2.30;;
7501;SDS011;3792;47.740;7.606;2022-09-20T10:20:25;5.47;;;2.00;;
7501;SDS011;3792;47.740;7.606;2022-09-20T10:23:16;2.90;;;1.90;;
7501;SDS011;3792;47.740;7.606;2022-09-20T10:25:52;4.30;;;1.87;;
7501;SDS011;3792;47.740;7.606;2022-09-20T10:28:31;4.57;;;1.70;;
7501;SDS011;3792;47.740;7.606;2022-09-20T10:31:15;2.27;;;1.70;;
7501;SDS011;3792;47.740;7.606;2022-09-20T10:34:03;5.87;;;2.10;;
7501;SDS011;3792;47.740;7.606;2022-09-20T10:36:43;6.33;;;1.80;;
7501;SDS011;3792;47.740;7.606;2022-09-20T10:39:18;5.10;;;1.90;;
7501;SDS011;3792;47.740;7.606;2022-09-20T10:41:53;3.50;;;1.77;;
7501;SDS011;3792;47.740;7.606;2022-09-20T10:44:51;4.53;;;1.97;;
7501;SDS011;3792;47.740;7.606;2022-09-20T10:47:37;5.43;;;1.80;;
7501;SDS011;3792;47.740;7.606;2022-09-20T10:50:13;7.80;;;1.80;;
7501;SDS011;3792;47.740;7.606;2022-09-20T10:53:00;3.17;;;1.70;;
7501;SDS011;3792;47.740;7.606;2022-09-20T10:55:41;11.63;;;2.00;;
7501;SDS011;3792;47.740;7.606;2022-09-20T10:58:24;7.10;;;2.20;;
7501;SDS011;3792;47.740;7.606;2022-09-20T11:01:25;5.33;;;1.60;;
7501;SDS011;3792;47.740;7.606;2022-09-20T11:04:03;4.73;;;1.30;;
7501;SDS011;3792;47.740;7.606;2022-09-20T11:06:47;2.30;;;1.30;;
7501;SDS011;3792;47.740;7.606;2022-09-20T11:09:21;4.70;;;1.80;;
7501;SDS011;3792;47.740;7.606;2022-09-20T11:11:54;5.80;;;1.50;;
7501;SDS011;3792;47.740;7.606;2022-09-20T11:14:37;2.60;;;1.17;;
7501;SDS011;3792;47.740;7.606;2022-09-20T11:17:10;4.10;;;1.40;;
7501;SDS011;3792;47.740;7.606;2022-09-20T11:19:45;3.50;;;1.40;;
7501;SDS011;3792;47.740;7.606;2022-09-20T11:22:17;1.80;;;1.20;;
7501;SDS011;3792;47.740;7.606;2022-09-20T11:24:48;1.50;;;1.10;;
7501;SDS011;3792;47.740;7.606;2022-09-20T11:27:22;2.83;;;0.87;;
7501;SDS011;3792;47.740;7.606;2022-09-20T11:29:57;2.60;;;1.17;;
7501;SDS011;3792;47.740;7.606;2022-09-20T11:32:29;3.73;;;1.00;;
7501;SDS011;3792;47.740;7.606;2022-09-20T11:35:01;1.70;;;0.93;;
7501;SDS011;3792;47.740;7.606;2022-09-20T11:37:32;2.43;;;0.93;;
7501;SDS011;3792;47.740;7.606;2022-09-20T11:40:06;1.50;;;0.97;;
7501;SDS011;3792;47.740;7.606;2022-09-20T11:42:42;3.60;;;1.10;;
7501;SDS011;3792;47.740;7.606;2022-09-20T11:45:10;2.33;;;0.70;;
7501;SDS011;3792;47.740;7.606;2022-09-20T11:47:38;2.57;;;0.70;;
7501;SDS011;3792;47.740;7.606;2022-09-20T11:50:33;2.67;;;0.73;;
7501;SDS011;3792;47.740;7.606;2022-09-20T11:53:13;1.40;;;0.70;;
7501;SDS011;3792;47.740;7.606;2022-09-20T11:55:53;1.83;;;0.50;;
7501;SDS011;3792;47.740;7.606;2022-09-20T11:58:27;0.53;;;0.53;;
7501;SDS011;3792;47.740;7.606;2022-09-20T12:00:56;1.70;;;0.67;;
7501;SDS011;3792;47.740;7.606;2022-09-20T12:03:27;1.77;;;0.67;;
7501;SDS011;3792;47.740;7.606;2022-09-20T12:05:59;2.53;;;0.63;;
7501;SDS011;3792;47.740;7.606;2022-09-20T12:08:28;0.50;;;0.50;;
7501;SDS011;3792;47.740;7.606;2022-09-20T12:10:59;2.73;;;0.50;;
7501;SDS011;3792;47.740;7.606;2022-09-20T12:13:31;2.93;;;0.57;;
7501;SDS011;3792;47.740;7.606;2022-09-20T12:16:02;0.90;;;0.70;;
7501;SDS011;3792;47.740;7.606;2022-09-20T12:18:44;0.60;;;0.50;;
7501;SDS011;3792;47.740;7.606;2022-09-20T12:21:14;0.93;;;0.63;;
7501;SDS011;3792;47.740;7.606;2022-09-20T12:32:31;0.87;;;0.60;;
7501;SDS011;3792;47.740;7.606;2022-09-20T12:38:38;0.87;;;0.60;;
7501;SDS011;3792;47.740;7.606;2022-09-20T12:41:17;0.60;;;0.60;;
7501;SDS011;3792;47.740;7.606;2022-09-20T12:43:51;1.10;;;0.50;;
7501;SDS011;3792;47.740;7.606;2022-09-20T12:46:39;1.40;;;0.70;;
7501;SDS011;3792;47.740;7.606;2022-09-20T12:49:09;0.70;;;0.50;;
7501;SDS011;3792;47.740;7.606;2022-09-20T12:52:00;2.00;;;0.70;;
7501;SDS011;3792;47.740;7.606;2022-09-20T12:54:51;1.83;;;0.70;;
7501;SDS011;3792;47.740;7.606;2022-09-20T12:57:25;0.60;;;0.60;;
7501;SDS011;3792;47.740;7.606;2022-09-20T12:59:56;1.13;;;0.60;;
7501;SDS011;3792;47.740;7.606;2022-09-20T13:02:53;2.03;;;0.70;;
7501;SDS011;3792;47.740;7.606;2022-09-20T13:05:29;1.67;;;0.60;;
7501;SDS011;3792;47.740;7.606;2022-09-20T13:07:59;1.13;;;0.70;;
7501;SDS011;3792;47.740;7.606;2022-09-20T13:10:31;0.77;;;0.77;;
7501;SDS011;3792;47.740;7.606;2022-09-20T13:16:01;1.20;;;0.87;;
7501;SDS011;3792;47.740;7.606;2022-09-20T13:18:31;2.20;;;0.90;;
7501;SDS011;3792;47.740;7.606;2022-09-20T13:21:01;1.97;;;0.80;;
7501;SDS011;3792;47.740;7.606;2022-09-20T13:23:33;1.57;;;0.90;;
7501;SDS011;3792;47.740;7.606;2022-09-20T13:26:10;0.83;;;0.83;;
7501;SDS011;3792;47.740;7.606;2022-09-20T13:28:41;1.27;;;0.80;;
7501;SDS011;3792;47.740;7.606;2022-09-20T13:31:22;2.03;;;0.90;;
7501;SDS011;3792;47.740;7.606;2022-09-20T13:33:54;2.10;;;0.70;;
7501;SDS011;3792;47.740;7.606;2022-09-20T13:36:38;3.57;;;0.80;;
7501;SDS011;3792;47.740;7.606;2022-09-20T13:39:06;2.87;;;0.80;;
7501;SDS011;3792;47.740;7.606;2022-09-20T13:41:33;0.97;;;0.80;;
7501;SDS011;3792;47.740;7.606;2022-09-20T13:44:01;1.03;;;0.80;;
7501;SDS011;3792;47.740;7.606;2022-09-20T13:46:30;2.50;;;0.60;;
7501;SDS011;3792;47.740;7.606;2022-09-20T13:49:08;0.70;;;0.70;;
7501;SDS011;3792;47.740;7.606;2022-09-20T13:51:41;3.60;;;0.77;;
7501;SDS011;3792;47.740;7.606;2022-09-20T13:54:19;0.80;;;0.60;;
7501;SDS011;3792;47.740;7.606;2022-09-20T13:56:51;0.50;;;0.37;;
7501;SDS011;3792;47.740;7.606;2022-09-20T13:59:20;0.70;;;0.70;;
7501;SDS011;3792;47.740;7.606;2022-09-20T14:01:49;0.80;;;0.80;;
7501;SDS011;3792;47.740;7.606;2022-09-20T14:04:19;0.50;;;0.50;;
7501;SDS011;3792;47.740;7.606;2022-09-20T14:06:48;0.60;;;0.57;;
7501;SDS011;3792;47.740;7.606;2022-09-20T14:09:18;0.70;;;0.70;;
7501;SDS011;3792;47.740;7.606;2022-09-20T14:11:50;2.93;;;0.83;;
7501;SDS011;3792;47.740;7.606;2022-09-20T14:14:18;1.23;;;0.67;;
7501;SDS011;3792;47.740;7.606;2022-09-20T14:16:46;0.60;;;0.60;;
7501;SDS011;3792;47.740;7.606;2022-09-20T14:19:15;0.70;;;0.50;;
7501;SDS011;3792;47.740;7.606;2022-09-20T14:21:46;1.00;;;0.67;;
7501;SDS011;3792;47.740;7.606;2022-09-20T14:24:22;0.80;;;0.80;;
7501;SDS011;3792;47.740;7.606;2022-09-20T14:27:00;2.90;;;0.80;;
7501;SDS011;3792;47.740;7.606;2022-09-20T14:29:39;0.73;;;0.70;;
7501;SDS011;3792;47.740;7.606;2022-09-20T14:32:16;1.73;;;0.70;;
7501;SDS011;3792;47.740;7.606;2022-09-20T14:35:03;2.00;;;0.70;;
7501;SDS011;3792;47.740;7.606;2022-09-20T14:37:34;1.87;;;0.77;;
7501;SDS011;3792;47.740;7.606;2022-09-20T14:40:15;0.70;;;0.70;;
7501;SDS011;3792;47.740;7.606;2022-09-20T14:42:48;0.50;;;0.50;;
7501;SDS011;3792;47.740;7.606;2022-09-20T14:45:20;2.67;;;0.80;;
7501;SDS011;3792;47.740;7.606;2022-09-20T14:47:53;1.43;;;0.60;;
7501;SDS011;3792;47.740;7.606;2022-09-20T14:50:23;1.30;;;0.80;;
7501;SDS011;3792;47.740;7.606;2022-09-20T14:53:18;1.60;;;0.60;;
7501;SDS011;3792;47.740;7.606;2022-09-20T14:55:54;2.33;;;1.10;;
7501;SDS011;3792;47.740;7.606;2022-09-20T14:58:32;1.53;;;0.70;;
7501;SDS011;3792;47.740;7.606;2022-09-20T15:01:21;2.83;;;0.80;;
7501;SDS011;3792;47.740;7.606;2022-09-20T15:03:50;2.40;;;0.73;;
7501;SDS011;3792;47.740;7.606;2022-09-20T15:06:17;2.33;;;0.70;;
7501;SDS011;3792;47.740;7.606;2022-09-20T15:08:46;1.53;;;0.90;;
7501;SDS011;3792;47.740;7.606;2022-09-20T15:11:13;1.80;;;0.80;;
7501;SDS011;3792;47.740;7.606;2022-09-20T15:13:41;1.30;;;0.77;;
7501;SDS011;3792;47.740;7.606;2022-09-20T15:16:09;2.33;;;0.70;;
7501;SDS011;3792;47.740;7.606;2022-09-20T15:18:39;1.40;;;0.70;;
7501;SDS011;3792;47.740;7.606;2022-09-20T15:21:07;1.50;;;0.73;;
7501;SDS011;3792;47.740;7.606;2022-09-20T15:23:35;1.83;;;0.90;;
7501;SDS011;3792;47.740;7.606;2022-09-20T15:26:05;1.27;;;0.93;;
7501;SDS011;3792;47.740;7.606;2022-09-20T15:28:33;6.53;;;1.10;;
7501;SDS011;3792;47.740;7.606;2022-09-20T15:31:00;0.80;;;0.80;;
7501;SDS011;3792;47.740;7.606;2022-09-20T15:33:28;1.07;;;0.80;;
7501;SDS011;3792;47.740;7.606;2022-09-20T15:35:56;0.53;;;0.53;;
7501;SDS011;3792;47.740;7.606;2022-09-20T15:38:23;1.10;;;0.90;;
7501;SDS011;3792;47.740;7.606;2022-09-20T15:40:51;2.53;;;0.87;;
7501;SDS011;3792;47.740;7.606;2022-09-20T15:43:20;1.20;;;0.60;;
7501;SDS011;3792;47.740;7.606;2022-09-20T15:45:51;3.90;;;0.97;;
7501;SDS011;3792;47.740;7.606;2022-09-20T15:48:20;1.70;;;0.80;;
7501;SDS011;3792;47.740;7.606;2022-09-20T15:50:58;0.60;;;0.60;;
7501;SDS011;3792;47.740;7.606;2022-09-20T15:53:32;0.70;;;0.63;;
7501;SDS011;3792;47.740;7.606;2022-09-20T15:56:00;1.43;;;0.60;;
7501;SDS011;3792;47.740;7.606;2022-09-20T15:58:31;2.70;;;0.87;;
7501;SDS011;3792;47.740;7.606;2022-09-20T16:01:03;2.93;;;0.90;;
7501;SDS011;3792;47.740;7.606;2022-09-20T16:03:31;1.80;;;0.70;;
7501;SDS011;3792;47.740;7.606;2022-09-20T16:05:58;2.40;;;0.70;;
7501;SDS011;3792;47.740;7.606;2022-09-20T16:08:26;1.00;;;0.70;;
7501;SDS011;3792;47.740;7.606;2022-09-20T16:10:56;1.27;;;0.90;;
7501;SDS011;3792;47.740;7.606;2022-09-20T16:13:24;5.10;;;1.13;;
7501;SDS011;3792;47.740;7.606;2022-09-20T16:15:56;1.57;;;1.10;;
7501;SDS011;3792;47.740;7.606;2022-09-20T16:18:24;2.13;;;0.80;;
7501;SDS011;3792;47.740;7.606;2022-09-20T16:21:10;2.90;;;0.90;;
7501;SDS011;3792;47.740;7.606;2022-09-20T16:23:39;2.03;;;1.03;;
7501;SDS011;3792;47.740;7.606;2022-09-20T16:26:08;1.07;;;0.80;;
7501;SDS011;3792;47.740;7.606;2022-09-20T16:28:37;2.50;;;1.33;;
7501;SDS011;3792;47.740;7.606;2022-09-20T16:31:06;1.17;;;1.00;;
7501;SDS011;3792;47.740;7.606;2022-09-20T16:33:54;3.00;;;1.03;;
7501;SDS011;3792;47.740;7.606;2022-09-20T16:36:22;3.13;;;1.20;;
7501;SDS011;3792;47.740;7.606;2022-09-20T16:38:49;1.43;;;0.80;;
7501;SDS011;3792;47.740;7.606;2022-09-20T16:41:22;1.07;;;0.97;;
7501;SDS011;3792;47.740;7.606;2022-09-20T16:43:51;2.30;;;0.90;;
7501;SDS011;3792;47.740;7.606;2022-09-20T16:46:20;1.20;;;1.10;;
7501;SDS011;3792;47.740;7.606;2022-09-20T16:48:51;3.00;;;1.73;;
7501;SDS011;3792;47.740;7.606;2022-09-20T16:51:19;2.03;;;1.50;;
7501;SDS011;3792;47.740;7.606;2022-09-20T16:53:50;4.60;;;3.90;;
7501;SDS011;3792;47.740;7.606;2022-09-20T16:56:20;6.30;;;5.67;;
7501;SDS011;3792;47.740;7.606;2022-09-20T16:58:48;8.60;;;6.87;;